sensor_id;sensor_type;location;lat;lon;timestamp;P1;durP1;ratioP1;P2;durP2;ratioP2
21215;SDS011;10765;50.954;5.322;2022-12-15T00:01:03;39.77;;;26.47;;
21215;SDS011;10765;50.954;5.322;2022-12-15T00:03:48;36.63;;;25.20;;
21215;SDS011;10765;50.954;5.322;2022-12-15T00:06:32;38.00;;;25.90;;
21215;SDS011;10765;50.954;5.322;2022-12-15T00:09:17;39.43;;;26.03;;
21215;SDS011;10765;50.954;5.322;2022-12-15T00:12:01;45.60;;;28.13;;
21215;SDS011;10765;50.954;5.322;2022-12-15T00:14:47;48.80;;;31.10;;
21215;SDS011;10765;50.954;5.322;2022-12-15T00:17:31;74.00;;;41.23;;
21215;SDS011;10765;50.954;5.322;2022-12-15T00:20:15;62.93;;;36.50;;
21215;SDS011;10765;50.954;5.322;2022-12-15T00:23:05;50.10;;;30.80;;
21215;SDS011;10765;50.954;5.322;2022-12-15T00:25:50;39.47;;;27.70;;
21215;SDS011;10765;50.954;5.322;2022-12-15T00:28:34;38.60;;;27.17;;
21215;SDS011;10765;50.954;5.322;2022-12-15T00:31:19;40.73;;;26.57;;
21215;SDS011;10765;50.954;5.322;2022-12-15T00:34:04;37.27;;;26.00;;
21215;SDS011;10765;50.954;5.322;2022-12-15T00:36:48;36.50;;;26.40;;
21215;SDS011;10765;50.954;5.322;2022-12-15T00:39:33;40.67;;;27.20;;
21215;SDS011;10765;50.954;5.322;2022-12-15T00:42:00;36.47;;;26.37;;
21215;SDS011;10765;50.954;5.322;2022-12-15T00:44:26;36.60;;;26.23;;
21215;SDS011;10765;50.954;5.322;2022-12-15T00:46:55;41.20;;;28.40;;
21215;SDS011;10765;50.954;5.322;2022-12-15T00:49:21;48.73;;;30.00;;
21215;SDS011;10765;50.954;5.322;2022-12-15T00:52:06;49.50;;;31.30;;
21215;SDS011;10765;50.954;5.322;2022-12-15T00:54:51;42.77;;;29.20;;
21215;SDS011;10765;50.954;5.322;2022-12-15T00:57:35;43.17;;;28.30;;
21215;SDS011;10765;50.954;5.322;2022-12-15T01:00:20;42.33;;;28.93;;
21215;SDS011;10765;50.954;5.322;2022-12-15T01:03:12;43.87;;;30.80;;
21215;SDS011;10765;50.954;5.322;2022-12-15T01:05:58;45.47;;;29.70;;
21215;SDS011;10765;50.954;5.322;2022-12-15T01:08:43;48.40;;;31.07;;
21215;SDS011;10765;50.954;5.322;2022-12-15T01:11:27;44.40;;;29.80;;
21215;SDS011;10765;50.954;5.322;2022-12-15T01:14:11;46.47;;;29.07;;
21215;SDS011;10765;50.954;5.322;2022-12-15T01:16:56;44.00;;;28.50;;
21215;SDS011;10765;50.954;5.322;2022-12-15T01:19:42;45.40;;;28.30;;
21215;SDS011;10765;50.954;5.322;2022-12-15T01:22:27;43.33;;;28.10;;
21215;SDS011;10765;50.954;5.322;2022-12-15T01:24:54;42.30;;;28.77;;
21215;SDS011;10765;50.954;5.322;2022-12-15T01:27:21;41.27;;;27.70;;
21215;SDS011;10765;50.954;5.322;2022-12-15T01:29:48;39.00;;;26.83;;
21215;SDS011;10765;50.954;5.322;2022-12-15T01:32:15;41.57;;;27.73;;
21215;SDS011;10765;50.954;5.322;2022-12-15T01:34:43;40.73;;;28.60;;
21215;SDS011;10765;50.954;5.322;2022-12-15T01:37:10;44.07;;;29.63;;
21215;SDS011;10765;50.954;5.322;2022-12-15T01:39:37;44.30;;;29.07;;
21215;SDS011;10765;50.954;5.322;2022-12-15T01:42:21;38.43;;;28.00;;
21215;SDS011;10765;50.954;5.322;2022-12-15T01:44:48;42.97;;;28.57;;
21215;SDS011;10765;50.954;5.322;2022-12-15T01:47:17;42.83;;;28.17;;
21215;SDS011;10765;50.954;5.322;2022-12-15T01:49:49;41.17;;;28.03;;
21215;SDS011;10765;50.954;5.322;2022-12-15T01:52:18;44.07;;;26.73;;
21215;SDS011;10765;50.954;5.322;2022-12-15T01:54:45;40.17;;;27.13;;
21215;SDS011;10765;50.954;5.322;2022-12-15T01:57:19;37.83;;;25.37;;
21215;SDS011;10765;50.954;5.322;2022-12-15T01:59:49;38.97;;;26.67;;
21215;SDS011;10765;50.954;5.322;2022-12-15T02:02:18;43.10;;;29.13;;
21215;SDS011;10765;50.954;5.322;2022-12-15T02:04:47;47.60;;;30.13;;
21215;SDS011;10765;50.954;5.322;2022-12-15T02:07:21;46.23;;;30.37;;
21215;SDS011;10765;50.954;5.322;2022-12-15T02:09:48;41.33;;;28.30;;
21215;SDS011;10765;50.954;5.322;2022-12-15T02:12:19;43.43;;;28.83;;
21215;SDS011;10765;50.954;5.322;2022-12-15T02:14:56;49.57;;;30.50;;
21215;SDS011;10765;50.954;5.322;2022-12-15T02:17:34;40.20;;;26.77;;
21215;SDS011;10765;50.954;5.322;2022-12-15T02:20:14;39.67;;;26.70;;
21215;SDS011;10765;50.954;5.322;2022-12-15T02:23:10;35.87;;;25.50;;
21215;SDS011;10765;50.954;5.322;2022-12-15T02:29:04;38.40;;;25.00;;
21215;SDS011;10765;50.954;5.322;2022-12-15T02:31:43;38.80;;;24.47;;
21215;SDS011;10765;50.954;5.322;2022-12-15T02:34:17;35.83;;;24.57;;
21215;SDS011;10765;50.954;5.322;2022-12-15T02:36:50;38.37;;;26.67;;
21215;SDS011;10765;50.954;5.322;2022-12-15T02:39:22;40.70;;;27.67;;
21215;SDS011;10765;50.954;5.322;2022-12-15T02:41:50;50.63;;;30.37;;
21215;SDS011;10765;50.954;5.322;2022-12-15T02:44:18;49.60;;;31.93;;
21215;SDS011;10765;50.954;5.322;2022-12-15T02:46:58;52.13;;;32.53;;
21215;SDS011;10765;50.954;5.322;2022-12-15T02:49:41;47.47;;;29.57;;
21215;SDS011;10765;50.954;5.322;2022-12-15T02:52:20;61.60;;;34.60;;
21215;SDS011;10765;50.954;5.322;2022-12-15T02:55:02;46.17;;;29.50;;
21215;SDS011;10765;50.954;5.322;2022-12-15T02:57:40;43.67;;;28.40;;
21215;SDS011;10765;50.954;5.322;2022-12-15T03:00:12;44.53;;;28.77;;
21215;SDS011;10765;50.954;5.322;2022-12-15T03:02:44;38.80;;;26.77;;
21215;SDS011;10765;50.954;5.322;2022-12-15T03:05:15;43.67;;;28.70;;
21215;SDS011;10765;50.954;5.322;2022-12-15T03:07:43;43.90;;;29.53;;
21215;SDS011;10765;50.954;5.322;2022-12-15T03:10:11;43.90;;;28.07;;
21215;SDS011;10765;50.954;5.322;2022-12-15T03:12:39;40.27;;;28.73;;
21215;SDS011;10765;50.954;5.322;2022-12-15T03:15:06;41.37;;;27.43;;
21215;SDS011;10765;50.954;5.322;2022-12-15T03:17:33;43.30;;;28.83;;
21215;SDS011;10765;50.954;5.322;2022-12-15T03:20:02;45.67;;;29.70;;
21215;SDS011;10765;50.954;5.322;2022-12-15T03:22:29;42.00;;;29.70;;
21215;SDS011;10765;50.954;5.322;2022-12-15T03:24:56;44.27;;;28.17;;
21215;SDS011;10765;50.954;5.322;2022-12-15T03:27:23;42.50;;;27.03;;
21215;SDS011;10765;50.954;5.322;2022-12-15T03:29:50;38.93;;;25.80;;
21215;SDS011;10765;50.954;5.322;2022-12-15T03:32:17;40.70;;;26.93;;
21215;SDS011;10765;50.954;5.322;2022-12-15T03:34:44;38.90;;;26.73;;
21215;SDS011;10765;50.954;5.322;2022-12-15T03:37:12;39.83;;;28.20;;
21215;SDS011;10765;50.954;5.322;2022-12-15T03:39:39;39.30;;;25.70;;
21215;SDS011;10765;50.954;5.322;2022-12-15T03:42:06;42.10;;;27.43;;
21215;SDS011;10765;50.954;5.322;2022-12-15T03:44:33;41.07;;;26.60;;
21215;SDS011;10765;50.954;5.322;2022-12-15T03:47:00;36.10;;;25.50;;
21215;SDS011;10765;50.954;5.322;2022-12-15T03:49:26;39.87;;;25.77;;
21215;SDS011;10765;50.954;5.322;2022-12-15T03:51:53;33.57;;;23.53;;
21215;SDS011;10765;50.954;5.322;2022-12-15T03:54:21;37.43;;;24.53;;
21215;SDS011;10765;50.954;5.322;2022-12-15T03:56:48;37.27;;;26.23;;
21215;SDS011;10765;50.954;5.322;2022-12-15T03:59:15;40.13;;;26.30;;
21215;SDS011;10765;50.954;5.322;2022-12-15T04:01:44;40.27;;;26.73;;
21215;SDS011;10765;50.954;5.322;2022-12-15T04:04:13;39.33;;;26.60;;
21215;SDS011;10765;50.954;5.322;2022-12-15T04:06:40;35.83;;;25.10;;
21215;SDS011;10765;50.954;5.322;2022-12-15T04:09:06;33.17;;;24.53;;
21215;SDS011;10765;50.954;5.322;2022-12-15T04:11:35;34.77;;;23.93;;
21215;SDS011;10765;50.954;5.322;2022-12-15T04:14:02;35.97;;;25.40;;
21215;SDS011;10765;50.954;5.322;2022-12-15T04:16:28;35.03;;;24.30;;
21215;SDS011;10765;50.954;5.322;2022-12-15T04:18:56;35.90;;;24.67;;
21215;SDS011;10765;50.954;5.322;2022-12-15T04:21:40;39.00;;;26.80;;
21215;SDS011;10765;50.954;5.322;2022-12-15T04:24:07;38.80;;;26.60;;
21215;SDS011;10765;50.954;5.322;2022-12-15T04:26:53;38.77;;;26.73;;
21215;SDS011;10765;50.954;5.322;2022-12-15T04:29:37;36.23;;;24.50;;
21215;SDS011;10765;50.954;5.322;2022-12-15T04:32:22;38.30;;;25.80;;
21215;SDS011;10765;50.954;5.322;2022-12-15T04:35:06;38.77;;;25.83;;
21215;SDS011;10765;50.954;5.322;2022-12-15T04:37:51;38.20;;;24.60;;
21215;SDS011;10765;50.954;5.322;2022-12-15T04:40:36;34.13;;;23.67;;
21215;SDS011;10765;50.954;5.322;2022-12-15T04:43:21;34.33;;;24.43;;
21215;SDS011;10765;50.954;5.322;2022-12-15T04:46:06;36.07;;;24.27;;
21215;SDS011;10765;50.954;5.322;2022-12-15T04:48:50;35.87;;;24.77;;
21215;SDS011;10765;50.954;5.322;2022-12-15T04:51:35;35.27;;;24.10;;
21215;SDS011;10765;50.954;5.322;2022-12-15T04:54:19;36.97;;;24.60;;
21215;SDS011;10765;50.954;5.322;2022-12-15T04:57:03;37.63;;;24.27;;
21215;SDS011;10765;50.954;5.322;2022-12-15T04:59:49;37.07;;;24.30;;
21215;SDS011;10765;50.954;5.322;2022-12-15T05:02:33;37.77;;;23.70;;
21215;SDS011;10765;50.954;5.322;2022-12-15T05:05:17;36.13;;;24.40;;
21215;SDS011;10765;50.954;5.322;2022-12-15T05:08:01;37.93;;;23.37;;
21215;SDS011;10765;50.954;5.322;2022-12-15T05:10:46;33.97;;;23.27;;
21215;SDS011;10765;50.954;5.322;2022-12-15T05:13:30;34.93;;;24.57;;
21215;SDS011;10765;50.954;5.322;2022-12-15T05:16:15;37.13;;;24.57;;
21215;SDS011;10765;50.954;5.322;2022-12-15T05:18:59;36.07;;;24.50;;
21215;SDS011;10765;50.954;5.322;2022-12-15T05:21:44;36.53;;;24.13;;
21215;SDS011;10765;50.954;5.322;2022-12-15T05:24:28;33.30;;;23.87;;
21215;SDS011;10765;50.954;5.322;2022-12-15T05:27:12;38.27;;;23.83;;
21215;SDS011;10765;50.954;5.322;2022-12-15T05:29:56;36.57;;;24.03;;
21215;SDS011;10765;50.954;5.322;2022-12-15T05:32:42;38.00;;;23.97;;
21215;SDS011;10765;50.954;5.322;2022-12-15T05:35:09;36.57;;;25.37;;
21215;SDS011;10765;50.954;5.322;2022-12-15T05:37:36;37.13;;;25.37;;
21215;SDS011;10765;50.954;5.322;2022-12-15T05:40:03;38.33;;;25.27;;
21215;SDS011;10765;50.954;5.322;2022-12-15T05:42:31;35.67;;;24.97;;
21215;SDS011;10765;50.954;5.322;2022-12-15T05:44:57;40.43;;;25.73;;
21215;SDS011;10765;50.954;5.322;2022-12-15T05:47:24;39.43;;;25.20;;
21215;SDS011;10765;50.954;5.322;2022-12-15T05:49:53;35.90;;;24.53;;
21215;SDS011;10765;50.954;5.322;2022-12-15T05:52:20;37.73;;;25.67;;
21215;SDS011;10765;50.954;5.322;2022-12-15T05:54:47;35.10;;;25.47;;
21215;SDS011;10765;50.954;5.322;2022-12-15T05:57:13;38.77;;;27.33;;
21215;SDS011;10765;50.954;5.322;2022-12-15T05:59:40;38.50;;;26.87;;
21215;SDS011;10765;50.954;5.322;2022-12-15T06:02:07;36.60;;;25.50;;
21215;SDS011;10765;50.954;5.322;2022-12-15T06:04:34;37.17;;;24.30;;
21215;SDS011;10765;50.954;5.322;2022-12-15T06:07:02;41.77;;;27.43;;
21215;SDS011;10765;50.954;5.322;2022-12-15T06:09:29;64.43;;;35.90;;
21215;SDS011;10765;50.954;5.322;2022-12-15T06:11:56;47.33;;;28.67;;
21215;SDS011;10765;50.954;5.322;2022-12-15T06:14:23;44.57;;;28.63;;
21215;SDS011;10765;50.954;5.322;2022-12-15T06:16:50;44.53;;;28.00;;
21215;SDS011;10765;50.954;5.322;2022-12-15T06:19:17;45.53;;;28.60;;
21215;SDS011;10765;50.954;5.322;2022-12-15T06:21:45;40.33;;;27.17;;
21215;SDS011;10765;50.954;5.322;2022-12-15T06:24:13;40.20;;;25.30;;
21215;SDS011;10765;50.954;5.322;2022-12-15T06:26:40;45.97;;;27.73;;
21215;SDS011;10765;50.954;5.322;2022-12-15T06:29:08;46.40;;;26.83;;
21215;SDS011;10765;50.954;5.322;2022-12-15T06:31:37;44.90;;;27.27;;
21215;SDS011;10765;50.954;5.322;2022-12-15T06:34:05;41.47;;;27.13;;
21215;SDS011;10765;50.954;5.322;2022-12-15T06:36:34;40.90;;;28.07;;
21215;SDS011;10765;50.954;5.322;2022-12-15T06:39:03;40.23;;;27.23;;
21215;SDS011;10765;50.954;5.322;2022-12-15T06:41:34;44.47;;;28.17;;
21215;SDS011;10765;50.954;5.322;2022-12-15T06:44:01;37.93;;;25.80;;
21215;SDS011;10765;50.954;5.322;2022-12-15T06:46:29;41.93;;;27.13;;
21215;SDS011;10765;50.954;5.322;2022-12-15T06:48:56;47.57;;;27.67;;
21215;SDS011;10765;50.954;5.322;2022-12-15T06:51:24;39.33;;;27.07;;
21215;SDS011;10765;50.954;5.322;2022-12-15T06:53:52;39.37;;;26.87;;
21215;SDS011;10765;50.954;5.322;2022-12-15T06:56:21;40.17;;;28.07;;
21215;SDS011;10765;50.954;5.322;2022-12-15T06:58:50;66.13;;;46.67;;
21215;SDS011;10765;50.954;5.322;2022-12-15T07:01:18;50.10;;;35.47;;
21215;SDS011;10765;50.954;5.322;2022-12-15T07:03:47;43.70;;;31.13;;
21215;SDS011;10765;50.954;5.322;2022-12-15T07:06:14;40.27;;;27.37;;
21215;SDS011;10765;50.954;5.322;2022-12-15T07:08:42;38.93;;;26.10;;
21215;SDS011;10765;50.954;5.322;2022-12-15T07:11:11;44.83;;;27.53;;
21215;SDS011;10765;50.954;5.322;2022-12-15T07:13:38;40.67;;;26.60;;
21215;SDS011;10765;50.954;5.322;2022-12-15T07:16:08;44.90;;;29.67;;
21215;SDS011;10765;50.954;5.322;2022-12-15T07:18:36;45.73;;;29.13;;
21215;SDS011;10765;50.954;5.322;2022-12-15T07:21:05;40.27;;;28.93;;
21215;SDS011;10765;50.954;5.322;2022-12-15T07:23:33;45.33;;;28.70;;
21215;SDS011;10765;50.954;5.322;2022-12-15T07:26:02;45.93;;;31.23;;
21215;SDS011;10765;50.954;5.322;2022-12-15T07:28:29;48.30;;;32.97;;
21215;SDS011;10765;50.954;5.322;2022-12-15T07:31:00;47.70;;;31.53;;
21215;SDS011;10765;50.954;5.322;2022-12-15T07:33:29;46.00;;;30.13;;
21215;SDS011;10765;50.954;5.322;2022-12-15T07:35:57;44.70;;;28.53;;
21215;SDS011;10765;50.954;5.322;2022-12-15T07:38:24;46.13;;;30.23;;
21215;SDS011;10765;50.954;5.322;2022-12-15T07:40:52;49.20;;;28.80;;
21215;SDS011;10765;50.954;5.322;2022-12-15T07:43:19;46.47;;;29.87;;
21215;SDS011;10765;50.954;5.322;2022-12-15T07:45:50;47.43;;;30.63;;
21215;SDS011;10765;50.954;5.322;2022-12-15T07:48:18;47.47;;;30.03;;
21215;SDS011;10765;50.954;5.322;2022-12-15T07:50:46;46.70;;;29.30;;
21215;SDS011;10765;50.954;5.322;2022-12-15T07:53:13;51.33;;;30.73;;
21215;SDS011;10765;50.954;5.322;2022-12-15T07:55:40;47.87;;;29.73;;
21215;SDS011;10765;50.954;5.322;2022-12-15T07:58:07;44.20;;;29.10;;
21215;SDS011;10765;50.954;5.322;2022-12-15T08:00:34;45.50;;;29.13;;
21215;SDS011;10765;50.954;5.322;2022-12-15T08:03:01;42.10;;;28.80;;
21215;SDS011;10765;50.954;5.322;2022-12-15T08:05:28;43.60;;;30.90;;
21215;SDS011;10765;50.954;5.322;2022-12-15T08:07:57;41.57;;;28.33;;
21215;SDS011;10765;50.954;5.322;2022-12-15T08:10:24;46.53;;;29.20;;
21215;SDS011;10765;50.954;5.322;2022-12-15T08:12:51;40.37;;;29.20;;
21215;SDS011;10765;50.954;5.322;2022-12-15T08:15:19;40.80;;;27.13;;
21215;SDS011;10765;50.954;5.322;2022-12-15T08:17:46;41.63;;;30.27;;
21215;SDS011;10765;50.954;5.322;2022-12-15T08:20:13;42.27;;;29.37;;
21215;SDS011;10765;50.954;5.322;2022-12-15T08:22:40;41.30;;;28.07;;
21215;SDS011;10765;50.954;5.322;2022-12-15T08:25:08;42.93;;;29.67;;
21215;SDS011;10765;50.954;5.322;2022-12-15T08:27:35;42.90;;;30.23;;
21215;SDS011;10765;50.954;5.322;2022-12-15T08:30:02;44.07;;;31.10;;
21215;SDS011;10765;50.954;5.322;2022-12-15T08:32:30;48.37;;;33.50;;
21215;SDS011;10765;50.954;5.322;2022-12-15T08:34:57;43.17;;;30.13;;
21215;SDS011;10765;50.954;5.322;2022-12-15T08:37:24;49.27;;;34.77;;
21215;SDS011;10765;50.954;5.322;2022-12-15T08:39:51;51.83;;;36.20;;
21215;SDS011;10765;50.954;5.322;2022-12-15T08:42:19;58.23;;;39.30;;
21215;SDS011;10765;50.954;5.322;2022-12-15T08:44:47;59.83;;;40.47;;
21215;SDS011;10765;50.954;5.322;2022-12-15T08:47:14;62.80;;;41.63;;
21215;SDS011;10765;50.954;5.322;2022-12-15T08:49:41;48.80;;;35.67;;
21215;SDS011;10765;50.954;5.322;2022-12-15T08:52:08;47.03;;;34.73;;
21215;SDS011;10765;50.954;5.322;2022-12-15T08:54:36;47.07;;;32.07;;
21215;SDS011;10765;50.954;5.322;2022-12-15T08:57:03;42.20;;;30.97;;
21215;SDS011;10765;50.954;5.322;2022-12-15T08:59:32;45.90;;;30.87;;
21215;SDS011;10765;50.954;5.322;2022-12-15T09:01:59;45.13;;;29.00;;
21215;SDS011;10765;50.954;5.322;2022-12-15T09:04:25;43.97;;;30.27;;
21215;SDS011;10765;50.954;5.322;2022-12-15T09:06:52;41.60;;;31.63;;
21215;SDS011;10765;50.954;5.322;2022-12-15T09:09:19;45.00;;;31.07;;
21215;SDS011;10765;50.954;5.322;2022-12-15T09:11:46;39.30;;;32.23;;
21215;SDS011;10765;50.954;5.322;2022-12-15T09:14:14;41.77;;;31.37;;
21215;SDS011;10765;50.954;5.322;2022-12-15T09:16:42;38.67;;;32.20;;
21215;SDS011;10765;50.954;5.322;2022-12-15T09:19:09;38.17;;;30.57;;
21215;SDS011;10765;50.954;5.322;2022-12-15T09:21:36;36.93;;;29.97;;
21215;SDS011;10765;50.954;5.322;2022-12-15T09:24:04;38.23;;;32.10;;
21215;SDS011;10765;50.954;5.322;2022-12-15T09:26:32;38.23;;;32.33;;
21215;SDS011;10765;50.954;5.322;2022-12-15T09:28:59;49.43;;;39.53;;
21215;SDS011;10765;50.954;5.322;2022-12-15T09:31:27;43.07;;;34.53;;
21215;SDS011;10765;50.954;5.322;2022-12-15T09:33:57;39.07;;;32.47;;
21215;SDS011;10765;50.954;5.322;2022-12-15T09:36:25;41.67;;;32.70;;
21215;SDS011;10765;50.954;5.322;2022-12-15T09:38:54;40.20;;;34.23;;
21215;SDS011;10765;50.954;5.322;2022-12-15T09:41:21;45.17;;;34.83;;
21215;SDS011;10765;50.954;5.322;2022-12-15T09:43:52;48.80;;;37.43;;
21215;SDS011;10765;50.954;5.322;2022-12-15T09:46:24;40.63;;;32.87;;
21215;SDS011;10765;50.954;5.322;2022-12-15T09:48:57;44.60;;;32.93;;
21215;SDS011;10765;50.954;5.322;2022-12-15T09:51:29;41.70;;;31.23;;
21215;SDS011;10765;50.954;5.322;2022-12-15T09:54:01;40.43;;;31.70;;
21215;SDS011;10765;50.954;5.322;2022-12-15T09:56:31;42.40;;;32.13;;
21215;SDS011;10765;50.954;5.322;2022-12-15T09:59:08;43.33;;;32.53;;
21215;SDS011;10765;50.954;5.322;2022-12-15T10:01:46;39.63;;;31.10;;
21215;SDS011;10765;50.954;5.322;2022-12-15T10:04:24;40.60;;;31.10;;
21215;SDS011;10765;50.954;5.322;2022-12-15T10:07:01;43.33;;;30.57;;
21215;SDS011;10765;50.954;5.322;2022-12-15T10:09:33;41.93;;;33.50;;
21215;SDS011;10765;50.954;5.322;2022-12-15T10:12:03;46.40;;;31.90;;
21215;SDS011;10765;50.954;5.322;2022-12-15T10:14:34;43.27;;;30.87;;
21215;SDS011;10765;50.954;5.322;2022-12-15T10:17:05;40.47;;;31.40;;
21215;SDS011;10765;50.954;5.322;2022-12-15T10:19:48;45.23;;;32.53;;
21215;SDS011;10765;50.954;5.322;2022-12-15T10:22:21;41.67;;;31.17;;
21215;SDS011;10765;50.954;5.322;2022-12-15T10:24:51;35.67;;;29.20;;
21215;SDS011;10765;50.954;5.322;2022-12-15T10:27:31;38.17;;;29.97;;
21215;SDS011;10765;50.954;5.322;2022-12-15T10:30:16;32.93;;;27.00;;
21215;SDS011;10765;50.954;5.322;2022-12-15T10:32:44;31.80;;;28.30;;
21215;SDS011;10765;50.954;5.322;2022-12-15T10:35:17;32.57;;;26.43;;
21215;SDS011;10765;50.954;5.322;2022-12-15T10:37:47;33.33;;;26.80;;
21215;SDS011;10765;50.954;5.322;2022-12-15T10:40:14;31.73;;;27.57;;
21215;SDS011;10765;50.954;5.322;2022-12-15T10:42:45;29.57;;;26.30;;
21215;SDS011;10765;50.954;5.322;2022-12-15T10:45:30;30.17;;;26.90;;
21215;SDS011;10765;50.954;5.322;2022-12-15T10:48:00;33.43;;;26.90;;
21215;SDS011;10765;50.954;5.322;2022-12-15T10:50:35;33.90;;;28.10;;
21215;SDS011;10765;50.954;5.322;2022-12-15T10:53:06;32.43;;;27.60;;
21215;SDS011;10765;50.954;5.322;2022-12-15T10:55:35;32.60;;;27.73;;
21215;SDS011;10765;50.954;5.322;2022-12-15T10:58:12;31.17;;;27.67;;
21215;SDS011;10765;50.954;5.322;2022-12-15T11:00:42;30.47;;;27.17;;
21215;SDS011;10765;50.954;5.322;2022-12-15T11:03:19;30.70;;;27.40;;
21215;SDS011;10765;50.954;5.322;2022-12-15T11:05:51;30.67;;;27.37;;
21215;SDS011;10765;50.954;5.322;2022-12-15T11:08:19;31.13;;;27.40;;
21215;SDS011;10765;50.954;5.322;2022-12-15T11:10:48;30.37;;;27.13;;
21215;SDS011;10765;50.954;5.322;2022-12-15T11:13:33;33.83;;;27.97;;
21215;SDS011;10765;50.954;5.322;2022-12-15T11:16:09;30.50;;;27.23;;
21215;SDS011;10765;50.954;5.322;2022-12-15T11:18:40;31.87;;;28.10;;
21215;SDS011;10765;50.954;5.322;2022-12-15T11:21:12;32.17;;;27.77;;
21215;SDS011;10765;50.954;5.322;2022-12-15T11:23:50;34.53;;;26.60;;
21215;SDS011;10765;50.954;5.322;2022-12-15T11:26:25;30.10;;;26.90;;
21215;SDS011;10765;50.954;5.322;2022-12-15T11:29:09;33.87;;;27.50;;
21215;SDS011;10765;50.954;5.322;2022-12-15T11:31:43;31.00;;;26.57;;
21215;SDS011;10765;50.954;5.322;2022-12-15T11:34:11;30.70;;;27.37;;
21215;SDS011;10765;50.954;5.322;2022-12-15T11:36:46;32.23;;;26.37;;
21215;SDS011;10765;50.954;5.322;2022-12-15T11:39:23;34.47;;;26.23;;
21215;SDS011;10765;50.954;5.322;2022-12-15T11:42:01;31.77;;;26.53;;
21215;SDS011;10765;50.954;5.322;2022-12-15T11:44:36;31.43;;;25.90;;
21215;SDS011;10765;50.954;5.322;2022-12-15T11:47:15;34.80;;;28.90;;
21215;SDS011;10765;50.954;5.322;2022-12-15T11:49:54;34.07;;;28.50;;
21215;SDS011;10765;50.954;5.322;2022-12-15T11:52:43;33.03;;;27.33;;
21215;SDS011;10765;50.954;5.322;2022-12-15T11:55:20;33.90;;;27.50;;
21215;SDS011;10765;50.954;5.322;2022-12-15T11:58:03;34.53;;;29.17;;
21215;SDS011;10765;50.954;5.322;2022-12-15T12:00:53;30.80;;;24.83;;
21215;SDS011;10765;50.954;5.322;2022-12-15T12:03:29;30.80;;;26.47;;
21215;SDS011;10765;50.954;5.322;2022-12-15T12:06:08;31.67;;;26.30;;
21215;SDS011;10765;50.954;5.322;2022-12-15T12:11:44;30.67;;;26.80;;
21215;SDS011;10765;50.954;5.322;2022-12-15T12:14:18;33.93;;;27.23;;
21215;SDS011;10765;50.954;5.322;2022-12-15T12:16:56;33.70;;;27.90;;
21215;SDS011;10765;50.954;5.322;2022-12-15T12:19:30;35.53;;;28.43;;
21215;SDS011;10765;50.954;5.322;2022-12-15T12:22:01;31.07;;;26.07;;
21215;SDS011;10765;50.954;5.322;2022-12-15T12:24:35;31.07;;;26.50;;
21215;SDS011;10765;50.954;5.322;2022-12-15T12:27:08;33.30;;;27.07;;
21215;SDS011;10765;50.954;5.322;2022-12-15T12:29:39;33.67;;;26.23;;
21215;SDS011;10765;50.954;5.322;2022-12-15T12:32:12;32.30;;;25.33;;
21215;SDS011;10765;50.954;5.322;2022-12-15T12:34:50;30.33;;;26.33;;
21215;SDS011;10765;50.954;5.322;2022-12-15T12:37:26;34.30;;;27.87;;
21215;SDS011;10765;50.954;5.322;2022-12-15T12:40:02;30.90;;;26.63;;
21215;SDS011;10765;50.954;5.322;2022-12-15T12:42:41;33.03;;;26.93;;
21215;SDS011;10765;50.954;5.322;2022-12-15T12:45:15;33.03;;;25.90;;
21215;SDS011;10765;50.954;5.322;2022-12-15T12:47:43;29.73;;;24.80;;
21215;SDS011;10765;50.954;5.322;2022-12-15T12:50:15;28.53;;;24.80;;
21215;SDS011;10765;50.954;5.322;2022-12-15T12:52:47;30.07;;;24.83;;
21215;SDS011;10765;50.954;5.322;2022-12-15T12:55:25;30.53;;;25.23;;
21215;SDS011;10765;50.954;5.322;2022-12-15T12:57:54;33.63;;;25.60;;
21215;SDS011;10765;50.954;5.322;2022-12-15T13:00:23;32.43;;;25.03;;
21215;SDS011;10765;50.954;5.322;2022-12-15T13:05:45;32.10;;;25.60;;
21215;SDS011;10765;50.954;5.322;2022-12-15T13:08:19;35.63;;;26.40;;
21215;SDS011;10765;50.954;5.322;2022-12-15T13:10:54;31.87;;;25.50;;
21215;SDS011;10765;50.954;5.322;2022-12-15T13:13:35;36.53;;;24.10;;
21215;SDS011;10765;50.954;5.322;2022-12-15T13:16:09;33.63;;;25.57;;
21215;SDS011;10765;50.954;5.322;2022-12-15T13:18:58;32.30;;;24.50;;
21215;SDS011;10765;50.954;5.322;2022-12-15T13:27:13;28.87;;;22.17;;
21215;SDS011;10765;50.954;5.322;2022-12-15T13:29:57;25.63;;;21.37;;
21215;SDS011;10765;50.954;5.322;2022-12-15T13:32:33;24.27;;;20.60;;
21215;SDS011;10765;50.954;5.322;2022-12-15T13:37:48;24.00;;;19.17;;
21215;SDS011;10765;50.954;5.322;2022-12-15T13:40:27;22.57;;;19.27;;
21215;SDS011;10765;50.954;5.322;2022-12-15T13:43:06;24.57;;;19.97;;
21215;SDS011;10765;50.954;5.322;2022-12-15T13:45:48;26.37;;;20.17;;
21215;SDS011;10765;50.954;5.322;2022-12-15T13:48:29;26.80;;;21.50;;
21215;SDS011;10765;50.954;5.322;2022-12-15T13:51:10;22.90;;;19.87;;
21215;SDS011;10765;50.954;5.322;2022-12-15T13:53:57;25.30;;;20.43;;
21215;SDS011;10765;50.954;5.322;2022-12-15T13:56:33;26.00;;;21.30;;
21215;SDS011;10765;50.954;5.322;2022-12-15T13:59:36;22.33;;;19.93;;
21215;SDS011;10765;50.954;5.322;2022-12-15T14:02:21;27.10;;;23.17;;
21215;SDS011;10765;50.954;5.322;2022-12-15T14:05:03;29.30;;;23.77;;
21215;SDS011;10765;50.954;5.322;2022-12-15T14:07:39;24.53;;;21.30;;
21215;SDS011;10765;50.954;5.322;2022-12-15T14:10:15;29.43;;;22.93;;
21215;SDS011;10765;50.954;5.322;2022-12-15T14:12:44;28.13;;;21.63;;
21215;SDS011;10765;50.954;5.322;2022-12-15T14:15:15;29.77;;;20.67;;
21215;SDS011;10765;50.954;5.322;2022-12-15T14:17:44;27.63;;;21.37;;
21215;SDS011;10765;50.954;5.322;2022-12-15T14:20:16;26.03;;;21.50;;
21215;SDS011;10765;50.954;5.322;2022-12-15T14:22:46;25.40;;;21.00;;
21215;SDS011;10765;50.954;5.322;2022-12-15T14:25:16;29.77;;;22.90;;
21215;SDS011;10765;50.954;5.322;2022-12-15T14:27:46;26.53;;;21.70;;
21215;SDS011;10765;50.954;5.322;2022-12-15T14:30:21;30.23;;;22.43;;
21215;SDS011;10765;50.954;5.322;2022-12-15T14:32:51;28.90;;;22.23;;
21215;SDS011;10765;50.954;5.322;2022-12-15T14:35:22;29.77;;;24.23;;
21215;SDS011;10765;50.954;5.322;2022-12-15T14:37:53;26.87;;;22.37;;
21215;SDS011;10765;50.954;5.322;2022-12-15T14:40:22;33.73;;;24.90;;
21215;SDS011;10765;50.954;5.322;2022-12-15T14:42:51;29.67;;;23.07;;
21215;SDS011;10765;50.954;5.322;2022-12-15T14:45:20;28.30;;;22.30;;
21215;SDS011;10765;50.954;5.322;2022-12-15T14:47:52;29.03;;;23.23;;
21215;SDS011;10765;50.954;5.322;2022-12-15T14:50:21;28.43;;;23.37;;
21215;SDS011;10765;50.954;5.322;2022-12-15T14:52:51;28.50;;;23.73;;
21215;SDS011;10765;50.954;5.322;2022-12-15T14:55:26;29.57;;;23.33;;
21215;SDS011;10765;50.954;5.322;2022-12-15T14:57:57;28.83;;;24.93;;
21215;SDS011;10765;50.954;5.322;2022-12-15T15:00:26;39.73;;;30.97;;
21215;SDS011;10765;50.954;5.322;2022-12-15T15:03:14;34.40;;;28.53;;
21215;SDS011;10765;50.954;5.322;2022-12-15T15:05:47;31.57;;;24.87;;
21215;SDS011;10765;50.954;5.322;2022-12-15T15:08:18;30.93;;;23.13;;
21215;SDS011;10765;50.954;5.322;2022-12-15T15:10:51;34.70;;;25.10;;
21215;SDS011;10765;50.954;5.322;2022-12-15T15:13:19;34.27;;;25.63;;